Time;durP1;ratioP1;P1;durP2;ratioP2;P2;SDS_P1;SDS_P2;PMS_P1;PMS_P2;Temp;Humidity;BMP_temperature;BMP_pressure;BME280_temperature;BME280_humidity;BME280_pressure;Samples;Min_cycle;Max_cycle;Signal;HPM_P1;HPM_P2
2024/04/09 00:03:41;;;;;;;11.50;6.00;;;;;;;;;;11256879;26;19995;-60
2024/04/09 00:08:44;;;;;;;10.68;6.45;;;;;;;;;;11260658;26;20002;-58
2024/04/09 00:13:45;;;;;;;9.18;5.60;;;;;;;;;;11238186;26;20098;-58
2024/04/09 00:18:48;;;;;;;12.55;6.28;;;;;;;;;;11260342;26;20864;-58
2024/04/09 00:23:49;;;;;;;15.18;7.03;;;;;;;;;;11231762;26;20003;-58
2024/04/09 00:28:51;;;;;;;10.45;5.63;;;;;;;;;;11259394;26;20081;-58
2024/04/09 00:33:52;;;;;;;9.68;5.82;;;;;;;;;;11244182;26;20014;-59
2024/04/09 00:38:55;;;;;;;10.57;5.93;;;;;;;;;;11244564;26;20048;-54
2024/04/09 00:43:56;;;;;;;7.55;6.18;;;;;;;;;;11245762;26;20002;-53
2024/04/09 00:48:57;;;;;;;8.23;6.07;;;;;;;;;;11232896;26;20003;-53
2024/04/09 00:53:59;;;;;;;8.40;5.93;;;;;;;;;;11217248;26;20028;-52
2024/04/09 00:59:01;;;;;;;11.45;6.03;;;;;;;;;;11236515;26;20066;-59
2024/04/09 01:04:02;;;;;;;11.00;6.18;;;;;;;;;;11216708;26;19999;-59
2024/04/09 01:09:03;;;;;;;7.57;5.47;;;;;;;;;;11242795;26;19995;-57
2024/04/09 01:14:04;;;;;;;8.10;6.35;;;;;;;;;;11265012;26;22077;-57
2024/04/09 01:19:05;;;;;;;9.05;5.78;;;;;;;;;;11250934;26;19999;-58
2024/04/09 01:24:08;;;;;;;12.93;6.65;;;;;;;;;;11244487;26;20750;-59
2024/04/09 01:29:09;;;;;;;7.85;6.28;;;;;;;;;;11267481;26;20401;-59
2024/04/09 01:34:11;;;;;;;10.60;6.32;;;;;;;;;;11272085;26;20003;-58
2024/04/09 01:39:14;;;;;;;16.02;6.05;;;;;;;;;;11221037;26;20359;-58
2024/04/09 01:44:15;;;;;;;14.07;6.20;;;;;;;;;;11249523;26;20430;-58
2024/04/09 01:49:17;;;;;;;7.97;5.80;;;;;;;;;;11247131;26;19996;-59
2024/04/09 01:54:18;;;;;;;12.82;6.20;;;;;;;;;;11250569;26;20358;-57
2024/04/09 01:59:19;;;;;;;8.15;5.90;;;;;;;;;;11252423;26;20048;-59
2024/04/09 02:04:20;;;;;;;10.13;6.13;;;;;;;;;;11267065;26;19999;-61
2024/04/09 02:09:23;;;;;;;11.57;6.25;;;;;;;;;;11267859;26;20551;-60
2024/04/09 02:14:25;;;;;;;7.63;5.93;;;;;;;;;;11264400;26;20014;-58
2024/04/09 02:19:26;;;;;;;8.30;6.25;;;;;;;;;;11269918;26;19991;-56
2024/04/09 02:24:27;;;;;;;7.13;5.57;;;;;;;;;;11261204;26;20399;-58
2024/04/09 02:29:28;;;;;;;7.90;5.82;;;;;;;;;;11264826;26;20438;-57
2024/04/09 02:34:34;;;;;;;8.77;5.53;;;;;;;;;;11263555;26;20057;-59
2024/04/09 02:39:36;;;;;;;6.40;5.28;;;;;;;;;;11267831;26;20039;-57
2024/04/09 02:44:37;;;;;;;8.60;5.05;;;;;;;;;;11263828;26;19998;-56
2024/04/09 02:49:39;;;;;;;6.35;5.20;;;;;;;;;;11264548;26;19995;-59
2024/04/09 02:54:40;;;;;;;8.65;5.85;;;;;;;;;;11232021;26;20343;-59
2024/04/09 02:59:41;;;;;;;6.18;5.00;;;;;;;;;;11266358;26;20003;-59
2024/04/09 03:04:42;;;;;;;12.57;5.53;;;;;;;;;;11265239;26;20003;-59
2024/04/09 03:09:43;;;;;;;6.72;5.40;;;;;;;;;;11243377;26;20071;-56
2024/04/09 03:14:45;;;;;;;7.03;5.20;;;;;;;;;;11245610;26;20004;-56
2024/04/09 03:19:49;;;;;;;5.57;4.70;;;;;;;;;;11213823;26;20071;-57
2024/04/09 03:24:50;;;;;;;5.82;5.13;;;;;;;;;;11244807;26;20358;-57
2024/04/09 03:29:51;;;;;;;6.28;5.05;;;;;;;;;;11259139;26;19995;-55
2024/04/09 03:34:52;;;;;;;5.28;4.78;;;;;;;;;;11251605;26;20485;-59
2024/04/09 03:39:53;;;;;;;5.72;4.45;;;;;;;;;;11263838;26;20059;-59
2024/04/09 03:44:55;;;;;;;5.70;4.70;;;;;;;;;;11254029;26;20010;-59
2024/04/09 03:49:56;;;;;;;6.60;4.57;;;;;;;;;;11230081;26;20052;-58
2024/04/09 03:54:57;;;;;;;5.45;4.60;;;;;;;;;;11234256;26;19999;-58
2024/04/09 03:59:59;;;;;;;10.05;5.53;;;;;;;;;;11262603;26;19998;-58
2024/04/09 04:05:00;;;;;;;5.95;5.28;;;;;;;;;;11227217;26;19999;-58
2024/04/09 04:10:01;;;;;;;4.88;4.18;;;;;;;;;;11251086;26;20007;-58
2024/04/09 04:15:03;;;;;;;6.65;4.97;;;;;;;;;;11240726;26;19995;-59
2024/04/09 04:20:04;;;;;;;5.90;4.80;;;;;;;;;;11266523;26;20100;-59
2024/04/09 04:25:05;;;;;;;4.95;4.47;;;;;;;;;;11258939;26;20550;-59
2024/04/09 04:30:07;;;;;;;7.28;4.78;;;;;;;;;;11258982;26;20055;-58
2024/04/09 04:35:08;;;;;;;6.28;5.03;;;;;;;;;;11238336;26;19998;-59
2024/04/09 04:40:10;;;;;;;5.50;4.90;;;;;;;;;;11237249;26;20073;-59
2024/04/09 04:45:11;;;;;;;5.05;4.55;;;;;;;;;;11250014;26;20342;-55
2024/04/09 04:50:12;;;;;;;6.07;4.78;;;;;;;;;;11265520;26;20075;-59
2024/04/09 04:55:13;;;;;;;7.03;4.80;;;;;;;;;;11259033;26;20026;-58
2024/04/09 05:00:14;;;;;;;6.47;5.28;;;;;;;;;;11262655;26;20064;-58
2024/04/09 05:05:16;;;;;;;9.07;5.00;;;;;;;;;;11244961;26;20499;-57
2024/04/09 05:10:19;;;;;;;5.45;4.85;;;;;;;;;;11249982;26;20003;-60
2024/04/09 05:15:21;;;;;;;5.80;4.57;;;;;;;;;;11268236;26;20108;-60
2024/04/09 05:20:26;;;;;;;5.57;4.57;;;;;;;;;;11265695;26;20009;-61
2024/04/09 05:25:27;;;;;;;5.53;4.63;;;;;;;;;;11215780;26;20434;-60
2024/04/09 05:30:28;;;;;;;5.22;4.47;;;;;;;;;;11242058;26;20200;-59
2024/04/09 05:35:29;;;;;;;4.63;4.22;;;;;;;;;;11270464;26;20002;-59
2024/04/09 05:40:33;;;;;;;5.35;4.82;;;;;;;;;;11232320;26;20003;-59
2024/04/09 05:45:34;;;;;;;14.63;4.68;;;;;;;;;;11228677;26;20343;-57
2024/04/09 05:50:35;;;;;;;7.25;5.45;;;;;;;;;;11238747;26;20018;-57
2024/04/09 05:55:37;;;;;;;6.63;5.13;;;;;;;;;;11231964;26;20071;-58
2024/04/09 06:00:39;;;;;;;9.07;5.30;;;;;;;;;;11246182;26;19998;-59
2024/04/09 06:05:40;;;;;;;7.05;5.47;;;;;;;;;;11235798;26;19998;-59
2024/04/09 06:10:41;;;;;;;9.75;5.65;;;;;;;;;;11257763;26;20711;-58
2024/04/09 06:15:42;;;;;;;9.77;6.00;;;;;;;;;;11235308;26;20002;-59
2024/04/09 06:20:46;;;;;;;7.68;5.95;;;;;;;;;;11261453;26;19999;-56
2024/04/09 06:25:57;;;;;;;12.25;6.57;;;;;;;;;;11238353;26;20370;-59
2024/04/09 06:30:58;;;;;;;11.55;7.13;;;;;;;;;;11246765;26;20395;-58
2024/04/09 06:35:59;;;;;;;10.13;6.50;;;;;;;;;;11280773;26;20096;-57
2024/04/09 06:41:00;;;;;;;17.00;6.50;;;;;;;;;;11268015;26;19999;-58
2024/04/09 06:46:01;;;;;;;10.65;7.05;;;;;;;;;;11244242;26;19994;-57
2024/04/09 06:51:03;;;;;;;12.57;6.63;;;;;;;;;;11273495;26;20090;-57
2024/04/09 06:56:04;;;;;;;12.65;6.47;;;;;;;;;;11253488;26;20035;-58
2024/04/09 07:01:05;;;;;;;15.38;6.32;;;;;;;;;;11264296;26;20074;-58
2024/04/09 07:06:06;;;;;;;16.10;6.57;;;;;;;;;;11251047;26;20523;-58
2024/04/09 07:11:07;;;;;;;9.23;6.35;;;;;;;;;;11236901;26;20003;-58
2024/04/09 07:16:08;;;;;;;8.50;6.32;;;;;;;;;;11257768;26;20438;-58
2024/04/09 07:21:09;;;;;;;9.02;6.90;;;;;;;;;;11267826;26;19998;-58
2024/04/09 07:26:10;;;;;;;10.77;7.32;;;;;;;;;;11265084;26;20003;-58
2024/04/09 07:31:14;;;;;;;14.65;8.13;;;;;;;;;;11258861;26;20044;-57
2024/04/09 07:36:15;;;;;;;10.52;7.60;;;;;;;;;;11255172;26;19999;-58
2024/04/09 07:41:17;;;;;;;11.60;7.07;;;;;;;;;;11238339;26;20022;-58
2024/04/09 07:46:19;;;;;;;8.50;7.25;;;;;;;;;;11262370;26;20454;-58
2024/04/09 07:51:20;;;;;;;14.90;7.72;;;;;;;;;;11262826;26;20589;-58
2024/04/09 07:56:22;;;;;;;12.27;7.30;;;;;;;;;;11254203;26;20027;-58
2024/04/09 08:01:23;;;;;;;11.02;7.40;;;;;;;;;;11259586;26;20018;-59
2024/04/09 08:06:27;;;;;;;11.68;7.43;;;;;;;;;;11249664;26;20000;-58
2024/04/09 08:11:28;;;;;;;11.02;7.28;;;;;;;;;;11264078;26;20007;-58
2024/04/09 08:16:30;;;;;;;11.82;7.65;;;;;;;;;;11261557;26;20380;-58
2024/04/09 08:21:31;;;;;;;11.45;7.40;;;;;;;;;;11242177;26;19998;-58
2024/04/09 08:26:32;;;;;;;10.60;7.70;;;;;;;;;;11230633;26;20003;-58
2024/04/09 08:31:33;;;;;;;14.65;8.18;;;;;;;;;;11259261;26;20075;-58
2024/04/09 08:36:37;;;;;;;11.73;7.78;;;;;;;;;;11268828;26;20431;-58
2024/04/09 08:41:38;;;;;;;13.13;7.30;;;;;;;;;;11269294;26;20018;-58
2024/04/09 08:46:40;;;;;;;12.18;7.80;;;;;;;;;;11271431;26;20374;-57
2024/04/09 08:51:42;;;;;;;14.55;7.45;;;;;;;;;;11249480;26;20021;-58
2024/04/09 08:56:44;;;;;;;17.23;6.97;;;;;;;;;;11241919;26;20535;-58
2024/04/09 09:01:46;;;;;;;13.35;7.10;;;;;;;;;;11266257;26;20002;-57
2024/04/09 09:06:47;;;;;;;12.45;7.03;;;;;;;;;;11255621;26;20003;-56
2024/04/09 09:11:49;;;;;;;9.90;6.13;;;;;;;;;;11228872;26;20124;-56
2024/04/09 09:16:50;;;;;;;10.20;6.82;;;;;;;;;;11220772;26;20358;-58
2024/04/09 09:21:51;;;;;;;10.80;6.00;;;;;;;;;;11266802;26;19999;-57
2024/04/09 09:26:59;;;;;;;8.63;5.60;;;;;;;;;;11297394;26;20051;-55
2024/04/09 09:32:01;;;;;;;;;;;;;;;;;;11298207;26;20002;-57
2024/04/09 09:37:10;;;;;;;10.57;6.28;;;;;;;;;;11281304;26;19924;-58
2024/04/09 09:42:11;;;;;;;;;;;;;;;;;;11246768;26;20003;-57
2024/04/09 09:47:15;;;;;;;8.80;5.28;;;;;;;;;;11270568;26;20400;-58
2024/04/09 09:52:16;;;;;;;10.02;5.38;;;;;;;;;;11262080;26;20462;-57
2024/04/09 09:57:23;;;;;;;8.90;4.72;;;;;;;;;;11237275;26;20015;-58
2024/04/09 10:02:29;;;;;;;9.38;5.72;;;;;;;;;;11234623;26;20018;-58
2024/04/09 10:07:33;;;;;;;8.15;5.28;;;;;;;;;;11240894;26;19999;-58
2024/04/09 10:12:36;;;;;;;6.18;4.75;;;;;;;;;;11254213;26;20043;-57
2024/04/09 10:18:03;;;;;;;7.38;4.65;;;;;;;;;;11239342;26;20003;-57
2024/04/09 10:23:07;;;;;;;7.30;4.95;;;;;;;;;;11263257;26;20470;-57
2024/04/09 10:28:28;;;;;;;9.77;5.60;;;;;;;;;;11260257;26;20074;-58
2024/04/09 10:33:33;;;;;;;11.07;5.00;;;;;;;;;;11232145;26;20067;-58
2024/04/09 10:38:38;;;;;;;10.63;5.40;;;;;;;;;;11227913;26;20028;-57
2024/04/09 10:43:39;;;;;;;8.85;4.45;;;;;;;;;;11228935;26;20011;-57
2024/04/09 10:48:41;;;;;;;11.38;5.30;;;;;;;;;;11214621;26;20399;-56
2024/04/09 10:53:42;;;;;;;7.05;4.88;;;;;;;;;;11224673;26;20339;-53
2024/04/09 10:58:43;;;;;;;8.10;5.05;;;;;;;;;;11217710;26;20003;-57
2024/04/09 11:03:45;;;;;;;5.50;4.70;;;;;;;;;;11226074;26;20104;-57
2024/04/09 11:08:46;;;;;;;7.65;4.68;;;;;;;;;;11224642;26;20045;-59
2024/04/09 11:13:48;;;;;;;7.18;4.38;;;;;;;;;;11251938;26;20090;-56
2024/04/09 11:19:01;;;;;;;6.75;4.70;;;;;;;;;;11247547;26;20002;-54
2024/04/09 11:24:02;;;;;;;6.78;4.72;;;;;;;;;;11264230;26;20009;-58
2024/04/09 11:29:03;;;;;;;9.40;5.35;;;;;;;;;;11242425;26;20168;-57
2024/04/09 11:34:04;;;;;;;6.35;4.47;;;;;;;;;;11258302;26;19995;-58
2024/04/09 11:39:07;;;;;;;6.63;4.43;;;;;;;;;;11245737;26;19999;-56
2024/04/09 11:44:09;;;;;;;5.70;4.82;;;;;;;;;;11231209;26;20631;-54
2024/04/09 11:49:10;;;;;;;7.47;4.53;;;;;;;;;;11241102;26;20080;-56
2024/04/09 11:54:11;;;;;;;8.88;5.20;;;;;;;;;;11248438;26;19999;-55
2024/04/09 11:59:12;;;;;;;6.30;3.92;;;;;;;;;;11251883;21;20008;-49
2024/04/09 12:04:13;;;;;;;7.05;4.50;;;;;;;;;;11038736;26;20000;-52
2024/04/09 12:09:15;;;;;;;7.28;4.63;;;;;;;;;;11036840;26;20013;-49
2024/04/09 12:14:16;;;;;;;5.85;4.28;;;;;;;;;;10987152;26;20075;-52
2024/04/09 12:19:17;;;;;;;6.70;4.07;;;;;;;;;;10999953;26;20037;-52
2024/04/09 12:24:19;;;;;;;8.07;4.30;;;;;;;;;;10993280;26;20001;-50
2024/04/09 12:29:22;;;;;;;6.85;4.13;;;;;;;;;;10976267;26;20013;-47
2024/04/09 12:34:23;;;;;;;8.50;4.13;;;;;;;;;;11041358;26;19997;-53
2024/04/09 12:39:25;;;;;;;6.28;3.80;;;;;;;;;;10991251;26;20120;-50
2024/04/09 12:44:26;;;;;;;6.10;4.00;;;;;;;;;;10974282;26;20090;-52
2024/04/09 12:49:29;;;;;;;7.72;4.20;;;;;;;;;;10992921;26;20025;-53
2024/04/09 12:54:31;;;;;;;8.15;4.28;;;;;;;;;;10983622;26;20001;-48
2024/04/09 12:59:34;;;;;;;6.55;4.65;;;;;;;;;;10982288;26;20006;-52
2024/04/09 13:04:35;;;;;;;8.73;4.13;;;;;;;;;;10972895;26;20012;-49
2024/04/09 13:09:37;;;;;;;5.47;3.83;;;;;;;;;;10973034;26;20006;-50
2024/04/09 13:14:38;;;;;;;4.97;4.00;;;;;;;;;;10973656;26;20038;-50
2024/04/09 13:19:39;;;;;;;5.47;4.13;;;;;;;;;;10983865;26;20391;-58
2024/04/09 13:24:40;;;;;;;11.93;4.15;;;;;;;;;;11009503;26;20641;-59
2024/04/09 13:29:41;;;;;;;4.55;3.58;;;;;;;;;;10992448;26;20044;-60
2024/04/09 13:34:44;;;;;;;7.70;4.07;;;;;;;;;;10996384;26;20444;-53
2024/04/09 13:39:48;;;;;;;4.72;3.80;;;;;;;;;;11022218;26;20924;-58
2024/04/09 13:44:49;;;;;;;9.23;4.35;;;;;;;;;;10974691;26;20006;-52
2024/04/09 13:49:50;;;;;;;11.48;3.88;;;;;;;;;;11005586;26;20349;-59
2024/04/09 13:54:51;;;;;;;10.40;4.22;;;;;;;;;;10999680;26;20074;-60
2024/04/09 13:59:53;;;;;;;10.43;3.63;;;;;;;;;;11020842;26;20005;-59
2024/04/09 14:24:36;;;;;;;15.32;4.53;;;;;;;;;;11345572;25;20460;-57
2024/04/09 14:29:37;;;;;;;13.38;4.75;;;;;;;;;;11264655;26;20011;-58
2024/04/09 14:34:39;;;;;;;9.13;4.10;;;;;;;;;;11280933;26;20023;-56
2024/04/09 14:39:40;;;;;;;8.85;4.20;;;;;;;;;;11275892;26;20089;-59
2024/04/09 14:44:41;;;;;;;8.48;4.25;;;;;;;;;;11286713;26;20057;-59
2024/04/09 14:49:44;;;;;;;14.55;5.63;;;;;;;;;;11273325;26;20154;-55
2024/04/09 14:54:47;;;;;;;9.52;4.13;;;;;;;;;;11276066;26;20007;-57
2024/04/09 14:59:48;;;;;;;9.20;4.53;;;;;;;;;;11281607;26;19998;-59
2024/04/09 15:04:49;;;;;;;10.88;4.85;;;;;;;;;;11263779;26;20041;-58
2024/04/09 15:09:51;;;;;;;9.10;4.63;;;;;;;;;;11277278;26;19999;-55
2024/04/09 15:14:52;;;;;;;7.82;5.07;;;;;;;;;;11277082;26;20046;-55
2024/04/09 15:19:53;;;;;;;10.25;5.15;;;;;;;;;;11265588;26;20088;-57
2024/04/09 15:24:54;;;;;;;7.72;4.72;;;;;;;;;;11227629;26;20014;-56
2024/04/09 15:29:55;;;;;;;12.52;4.97;;;;;;;;;;11218208;26;20079;-56
2024/04/09 15:34:57;;;;;;;6.78;4.20;;;;;;;;;;11245909;26;20003;-59
2024/04/09 15:39:58;;;;;;;9.25;4.40;;;;;;;;;;11230754;26;20469;-56
2024/04/09 15:44:59;;;;;;;11.32;4.30;;;;;;;;;;11241282;26;20018;-58
2024/04/09 15:50:01;;;;;;;14.30;4.10;;;;;;;;;;11234404;26;19996;-56
2024/04/09 15:55:06;;;;;;;10.95;4.47;;;;;;;;;;11227767;26;20003;-56
2024/04/09 16:00:17;;;;;;;15.13;4.78;;;;;;;;;;11231527;26;19995;-59
2024/04/09 16:05:18;;;;;;;4.82;3.40;;;;;;;;;;11228827;26;20015;-57
2024/04/09 16:10:19;;;;;;;8.52;3.92;;;;;;;;;;11253467;26;20068;-56
2024/04/09 16:15:20;;;;;;;10.07;4.32;;;;;;;;;;11248903;26;20030;-58
2024/04/09 16:20:22;;;;;;;12.60;4.55;;;;;;;;;;11226056;26;20071;-58
2024/04/09 16:25:24;;;;;;;11.23;4.30;;;;;;;;;;11239764;26;20003;-59
2024/04/09 16:30:25;;;;;;;9.77;4.28;;;;;;;;;;11239118;26;20003;-56
2024/04/09 16:35:26;;;;;;;6.88;3.85;;;;;;;;;;11214669;26;20011;-58
2024/04/09 16:40:27;;;;;;;9.40;4.38;;;;;;;;;;11259794;26;20396;-58
2024/04/09 16:45:28;;;;;;;7.38;4.10;;;;;;;;;;11228467;26;20109;-58
2024/04/09 16:50:31;;;;;;;10.75;3.95;;;;;;;;;;11215271;26;20521;-57
2024/04/09 16:55:32;;;;;;;11.82;4.10;;;;;;;;;;11234688;26;20032;-58
2024/04/09 17:00:33;;;;;;;8.40;4.07;;;;;;;;;;11222158;26;20623;-57
2024/04/09 17:05:34;;;;;;;12.95;4.53;;;;;;;;;;11233497;26;20042;-59
2024/04/09 17:10:35;;;;;;;7.25;3.67;;;;;;;;;;11240740;26;20026;-59
2024/04/09 17:15:36;;;;;;;9.93;4.15;;;;;;;;;;11237268;26;20099;-59
2024/04/09 17:20:37;;;;;;;4.65;3.53;;;;;;;;;;11224001;26;20520;-59
2024/04/09 17:25:39;;;;;;;5.82;3.70;;;;;;;;;;11214949;26;20031;-56
2024/04/09 17:30:40;;;;;;;12.50;4.18;;;;;;;;;;11265865;26;20018;-59
2024/04/09 17:35:41;;;;;;;7.50;4.32;;;;;;;;;;11175708;26;20645;-60
2024/04/09 17:40:43;;;;;;;7.25;3.67;;;;;;;;;;11227167;26;20002;-60
2024/04/09 17:45:44;;;;;;;8.13;4.47;;;;;;;;;;11232894;26;20004;-60
2024/04/09 17:50:46;;;;;;;9.52;4.75;;;;;;;;;;11227512;26;20007;-60
2024/04/09 17:55:47;;;;;;;12.10;4.25;;;;;;;;;;11237773;26;20484;-60
2024/04/09 18:00:48;;;;;;;8.88;4.70;;;;;;;;;;11238552;26;20067;-60
2024/04/09 18:05:49;;;;;;;12.57;5.20;;;;;;;;;;11234482;26;20010;-60
2024/04/09 18:10:50;;;;;;;26.60;8.85;;;;;;;;;;11229331;26;20023;-58
2024/04/09 18:15:51;;;;;;;19.25;8.82;;;;;;;;;;11242777;26;20115;-59
2024/04/09 18:20:54;;;;;;;28.00;9.77;;;;;;;;;;11234060;26;20487;-59
2024/04/09 18:26:02;;;;;;;18.42;8.50;;;;;;;;;;11246193;26;20014;-59
2024/04/09 18:31:04;;;;;;;23.33;8.98;;;;;;;;;;11225571;26;20061;-59
2024/04/09 18:36:06;;;;;;;21.17;7.85;;;;;;;;;;11225608;26;20842;-59
2024/04/09 18:41:11;;;;;;;15.05;6.88;;;;;;;;;;11233618;26;19999;-59
2024/04/09 18:46:12;;;;;;;23.38;7.65;;;;;;;;;;11240721;26;20100;-58
2024/04/09 18:51:14;;;;;;;14.00;7.00;;;;;;;;;;11228603;26;19998;-59
2024/04/09 18:56:15;;;;;;;16.33;7.50;;;;;;;;;;11224082;26;20010;-60
2024/04/09 19:01:16;;;;;;;12.60;7.10;;;;;;;;;;11215401;26;19995;-59
2024/04/09 19:06:19;;;;;;;19.13;7.20;;;;;;;;;;11254707;26;20620;-60
2024/04/09 19:11:21;;;;;;;11.35;6.63;;;;;;;;;;11219538;26;20045;-59
2024/04/09 19:16:22;;;;;;;13.68;6.30;;;;;;;;;;11215282;26;20011;-59
2024/04/09 19:21:23;;;;;;;17.35;7.28;;;;;;;;;;11235330;26;20427;-59
2024/04/09 19:26:24;;;;;;;11.60;5.90;;;;;;;;;;11231344;26;20097;-57
2024/04/09 19:31:25;;;;;;;13.50;6.03;;;;;;;;;;11250332;26;20521;-59
2024/04/09 19:36:27;;;;;;;10.77;5.68;;;;;;;;;;11227069;26;20018;-59
2024/04/09 19:41:29;;;;;;;17.13;6.40;;;;;;;;;;11247521;26;19999;-59
2024/04/09 19:46:30;;;;;;;15.32;6.35;;;;;;;;;;11249059;26;20465;-59
2024/04/09 19:51:32;;;;;;;13.55;5.85;;;;;;;;;;11245908;26;20105;-59
2024/04/09 19:56:33;;;;;;;11.93;5.18;;;;;;;;;;11267440;26;20478;-59
2024/04/09 20:01:34;;;;;;;15.38;5.55;;;;;;;;;;11235588;26;20095;-59
2024/04/09 20:06:35;;;;;;;14.18;5.70;;;;;;;;;;11250391;26;20386;-59
2024/04/09 20:11:36;;;;;;;10.65;5.35;;;;;;;;;;11241961;26;19999;-59
2024/04/09 20:16:37;;;;;;;14.57;5.40;;;;;;;;;;11227878;26;20351;-60
2024/04/09 20:21:38;;;;;;;12.50;5.03;;;;;;;;;;11212211;26;20069;-59
2024/04/09 20:26:41;;;;;;;10.65;4.68;;;;;;;;;;11251901;26;20034;-59
2024/04/09 20:31:42;;;;;;;14.02;5.88;;;;;;;;;;11225175;26;20003;-59
2024/04/09 20:36:47;;;;;;;18.92;5.80;;;;;;;;;;11225153;26;20000;-60
2024/04/09 20:41:49;;;;;;;11.65;4.82;;;;;;;;;;11202848;26;20338;-59
2024/04/09 20:46:50;;;;;;;14.25;5.93;;;;;;;;;;11218485;26;20300;-59
2024/04/09 20:51:53;;;;;;;10.30;5.40;;;;;;;;;;11220099;26;20019;-60
2024/04/09 20:56:55;;;;;;;9.75;5.15;;;;;;;;;;11219633;26;20100;-58
2024/04/09 21:01:56;;;;;;;6.97;4.55;;;;;;;;;;11226975;26;20014;-59
2024/04/09 21:06:58;;;;;;;12.43;5.07;;;;;;;;;;11226787;26;20501;-60
2024/04/09 21:11:59;;;;;;;10.68;5.35;;;;;;;;;;11238985;26;20339;-59
2024/04/09 21:17:00;;;;;;;8.27;4.55;;;;;;;;;;11226568;26;20070;-59
2024/04/09 21:22:01;;;;;;;11.13;5.07;;;;;;;;;;11212601;26;20425;-60
2024/04/09 21:27:03;;;;;;;10.60;4.88;;;;;;;;;;11220640;26;20072;-60
2024/04/09 21:32:06;;;;;;;8.93;4.97;;;;;;;;;;11261586;26;20030;-59
2024/04/09 21:37:07;;;;;;;7.13;4.80;;;;;;;;;;11197903;26;20003;-60
2024/04/09 21:42:09;;;;;;;11.00;4.47;;;;;;;;;;11252965;26;20509;-60
2024/04/09 21:47:10;;;;;;;11.32;4.75;;;;;;;;;;11229272;26;19999;-59
2024/04/09 21:52:11;;;;;;;11.85;5.05;;;;;;;;;;11225670;26;19995;-60
2024/04/09 21:57:12;;;;;;;5.88;4.45;;;;;;;;;;11220488;26;20078;-59
2024/04/09 22:02:13;;;;;;;5.85;4.38;;;;;;;;;;11219073;26;20072;-59
2024/04/09 22:07:14;;;;;;;10.00;4.45;;;;;;;;;;11230116;26;20068;-57
2024/04/09 22:12:15;;;;;;;11.50;4.25;;;;;;;;;;11245457;26;20037;-57
2024/04/09 22:17:17;;;;;;;8.93;4.97;;;;;;;;;;11226457;26;20404;-57
2024/04/09 22:22:18;;;;;;;9.43;5.35;;;;;;;;;;11235473;26;19999;-58
2024/04/09 22:27:19;;;;;;;10.38;4.78;;;;;;;;;;11245882;26;20490;-58
2024/04/09 22:32:20;;;;;;;11.10;4.75;;;;;;;;;;11252288;26;20023;-58
2024/04/09 22:37:21;;;;;;;15.18;4.70;;;;;;;;;;11228449;26;19999;-57
2024/04/09 22:42:24;;;;;;;8.45;4.38;;;;;;;;;;11216273;26;20079;-57
2024/04/09 22:47:25;;;;;;;7.03;4.13;;;;;;;;;;11265431;26;20007;-54
2024/04/09 22:52:26;;;;;;;9.30;4.25;;;;;;;;;;11245750;26;20138;-55
2024/04/09 22:57:27;;;;;;;9.90;4.50;;;;;;;;;;11239522;26;20027;-57
2024/04/09 23:02:28;;;;;;;7.78;3.45;;;;;;;;;;11223439;26;20090;-52
2024/04/09 23:07:30;;;;;;;11.70;4.47;;;;;;;;;;11236359;26;20472;-56
2024/04/09 23:12:33;;;;;;;8.68;4.35;;;;;;;;;;11236760;26;20392;-55
2024/04/09 23:17:34;;;;;;;7.72;4.07;;;;;;;;;;11238081;26;20438;-57
2024/04/09 23:22:35;;;;;;;10.35;4.10;;;;;;;;;;11233553;26;20014;-55
2024/04/09 23:27:36;;;;;;;6.25;3.92;;;;;;;;;;11256185;26;20402;-56
2024/04/09 23:32:37;;;;;;;7.07;3.65;;;;;;;;;;11251952;26;20430;-57
2024/04/09 23:37:38;;;;;;;6.03;3.83;;;;;;;;;;11246423;26;20018;-58
2024/04/09 23:42:40;;;;;;;10.05;4.75;;;;;;;;;;11262142;26;20473;-58
2024/04/09 23:47:41;;;;;;;6.85;3.80;;;;;;;;;;11250643;26;20493;-56
2024/04/09 23:52:42;;;;;;;8.82;3.80;;;;;;;;;;11254111;26;20079;-57
2024/04/09 23:57:43;;;;;;;8.65;4.25;;;;;;;;;;11239173;26;20429;-58
